SKRGSKCG

Guest
Details From SKRG - JOSE MARIA CORDOVA
To SKCG - RAFAEL NUNEZ
Flight Number -
Tags generated
Created
Modified
Stats Distance 257 nm / 476 km
Max Altitude 32,300 ft / 9,845 m
Waypoints 4
Social Downloads 16
Likes 0
Share VATSIM

Download

Looking for another format? Having issues loading an existing format? Contact us
Advertisement - Login to hide

Notes

Basic altitude profile: - Ascent Rate: 2500ft/min - Ascent Speed: 250kts - Cruise Altitude: 35000ft - Cruise Speed: 420kts - Descent Rate: 1500ft/min - Descent Speed: 250kts Options: - Use NATs: yes - Use PACOTS: yes - Use low airways: yes - Use high airways: yes

Route

SKRG BUTAL UG438 CTG SKCG

ID Type Via Altitude Latitude Longitude Leg Dist Tot Dist Heading (true) Name
O SKRG APT - 0 ft / 0 m 6.16453˚ -75.42312˚ - 0 nm - JOSE MARIA CORDOVA
BUTAL FIX - 32,300 ft / 9,845 m 7.85361˚ -75.45722˚ 101 nm 101 nm 359° / 359° -
CTG VOR UG438 (AWY-HI) 24,500 ft / 7,468 m 10.20836˚ -75.50608˚ 141 nm 242 nm 359° / 359° CARTAGENA VOR-DME
O SKCG APT - 0 ft / 0 m 10.44238˚ -75.51296˚ 14 nm 256 nm 358° / 358° RAFAEL NUNEZ

Altitude Profile

Advertisement - Login to hide

Weather


0- 5 10 15 20 25 30 35+ Temperature / ° C

Clouds and Precipitation
Forecast for 2017-12-14 18:00 UTC. Updated 16 minutes ago

Ground ~20,000 ft ~40,000 ft Winds

SKRG

Details ICAO SKRG (MDE)
Name JOSE MARIA CORDOVA
Region Colombia
Timezone America/Bogota (UTC-5.0)
Stats Elevation 6,955 ft / 2,120 m (AMSL)
Location 6.164532° -75.423119°
Runways 1
Magnetic Variation 6.631° W

METAR

SKRG 141500Z 09004KT 9999 BKN020 19/13 A3030

Decode

TAF

Not found

Departure Runways

ID Width Length Bearing (true) Bearing (mag) Surface Threshold Offset Overrun Length
18 148 ft / 45 m 11,547 ft / 3,520 m 179.62° 186.25° Asphalt 0 ft / 0 m 98 ft / 30 m
36 148 ft / 45 m 11,547 ft / 3,520 m 359.62° 6.25° Asphalt 0 ft / 0 m 98 ft / 30 m

SKCG

Details ICAO SKCG (CTG)
Name RAFAEL NUNEZ
Region Colombia
Timezone America/Bogota (UTC-5.0)
Stats Elevation 4 ft / 1 m (AMSL)
Location 10.442379° -75.512961°
Runways 1
Magnetic Variation 7.204° W

METAR

SKCG 141500Z 05003KT 360V110 CAVOK 30/25 A2989

Decode

TAF

Not found

Destination Runways

ID Width Length Bearing (true) Bearing (mag) Surface Threshold Offset Overrun Length
01 148 ft / 45 m 8,584 ft / 2,616 m 2.31° 9.51° Asphalt 0 ft / 0 m 180 ft / 55 m
19 148 ft / 45 m 8,584 ft / 2,616 m 182.31° 189.51° Asphalt 190 ft / 58 m 0 ft / 0 m

Popular Alternatives